Wetterdaten: aktuell Donnerstag, 21.06.2018 23:59
Datum Zeit Temp. A. Feuchte A. Luftdruck Regen Wind Richtung Richtung Taupunkt Windchill Windben
17.06.2018 23:59 16,4 C 76 % 1018,0 hPa 0,0 l/m 11,9 km/h (2 Bft) NW 325 12,2 C 16,4 C 12,9 km/h (3 Bft)
17.06.2018 23:58 16,4 C 77 % 1018,0 hPa 0,0 l/m 10,4 km/h (2 Bft) NW 309 12,4 C 16,4 C 12,9 km/h (3 Bft)
17.06.2018 23:57 16,4 C 77 % 1018,0 hPa 0,0 l/m 10,6 km/h (2 Bft) NW 312 12,4 C 16,4 C 12,9 km/h (3 Bft)
17.06.2018 23:56 16,3 C 77 % 1018,0 hPa 0,0 l/m 10,9 km/h (2 Bft) NW 308 12,3 C 16,3 C 12,9 km/h (3 Bft)
17.06.2018 23:55 16,3 C 77 % 1018,0 hPa 0,0 l/m 10,5 km/h (2 Bft) NW 305 12,3 C 16,3 C 12,9 km/h (3 Bft)
17.06.2018 23:54 16,3 C 77 % 1018,0 hPa 0,0 l/m 10,0 km/h (2 Bft) NW 315 12,3 C 16,3 C 12,9 km/h (3 Bft)
17.06.2018 23:53 16,3 C 77 % 1018,0 hPa 0,0 l/m 11,2 km/h (2 Bft) NW 323 12,3 C 16,3 C 14,5 km/h (3 Bft)
17.06.2018 23:52 16,3 C 77 % 1018,0 hPa 0,0 l/m 11,7 km/h (2 Bft) NW 316 12,3 C 16,3 C 12,9 km/h (3 Bft)
17.06.2018 23:51 16,3 C 77 % 1018,0 hPa 0,0 l/m 9,9 km/h (2 Bft) N-NW 329 12,3 C 16,3 C 12,9 km/h (3 Bft)
17.06.2018 23:50 16,3 C 77 % 1018,0 hPa 0,0 l/m 9,9 km/h (2 Bft) NW 312 12,3 C 16,3 C 12,9 km/h (3 Bft)
17.06.2018 23:49 16,3 C 77 % 1018,0 hPa 0,0 l/m 11,3 km/h (2 Bft) NW 313 12,3 C 16,3 C 14,5 km/h (3 Bft)
17.06.2018 23:48 16,2 C 77 % 1018,0 hPa 0,0 l/m 10,2 km/h (2 Bft) NW 314 12,2 C 16,2 C 11,3 km/h (2 Bft)
17.06.2018 23:47 16,2 C 77 % 1018,0 hPa 0,0 l/m 9,9 km/h (2 Bft) NW 312 12,2 C 16,2 C 12,9 km/h (3 Bft)
17.06.2018 23:46 16,2 C 78 % 1018,0 hPa 0,0 l/m 12,9 km/h (3 Bft) NW 307 12,4 C 16,2 C 16,1 km/h (3 Bft)
17.06.2018 23:45 16,2 C 78 % 1018,0 hPa 0,0 l/m 11,5 km/h (2 Bft) NW 312 12,4 C 16,2 C 12,9 km/h (3 Bft)
17.06.2018 23:44 16,2 C 78 % 1018,0 hPa 0,0 l/m 12,6 km/h (3 Bft) NW 310 12,4 C 16,2 C 14,5 km/h (3 Bft)
17.06.2018 23:43 16,2 C 78 % 1018,0 hPa 0,0 l/m 12,6 km/h (3 Bft) NW 321 12,4 C 16,2 C 17,7 km/h (3 Bft)
17.06.2018 23:42 16,2 C 78 % 1018,0 hPa 0,0 l/m 10,2 km/h (2 Bft) NW 306 12,4 C 16,2 C 12,9 km/h (3 Bft)
17.06.2018 23:41 16,2 C 78 % 1018,1 hPa 0,0 l/m 11,7 km/h (2 Bft) NW 305 12,4 C 16,2 C 14,5 km/h (3 Bft)
17.06.2018 23:40 16,2 C 78 % 1018,0 hPa 0,0 l/m 11,6 km/h (2 Bft) W-NW 300 12,4 C 16,2 C 14,5 km/h (3 Bft)
17.06.2018 23:39 16,1 C 78 % 1018,0 hPa 0,0 l/m 10,0 km/h (2 Bft) W-NW 293 12,3 C 16,1 C 12,9 km/h (3 Bft)
17.06.2018 23:38 16,1 C 78 % 1018,0 hPa 0,0 l/m 11,5 km/h (2 Bft) NW 314 12,3 C 16,1 C 14,5 km/h (3 Bft)
17.06.2018 23:37 16,1 C 78 % 1018,0 hPa 0,0 l/m 10,0 km/h (2 Bft) W 275 12,3 C 16,1 C 12,9 km/h (3 Bft)
17.06.2018 23:36 16,1 C 79 % 1018,0 hPa 0,0 l/m 11,8 km/h (2 Bft) W-NW 284 12,5 C 16,1 C 16,1 km/h (3 Bft)
17.06.2018 23:35 16,1 C 79 % 1018,0 hPa 0,0 l/m 11,6 km/h (2 Bft) NW 309 12,5 C 16,1 C 14,5 km/h (3 Bft)
17.06.2018 23:34 16,1 C 79 % 1017,9 hPa 0,0 l/m 12,8 km/h (3 Bft) W-NW 290 12,5 C 16,1 C 16,1 km/h (3 Bft)
17.06.2018 23:33 16,1 C 79 % 1017,9 hPa 0,0 l/m 10,4 km/h (2 Bft) NW 305 12,5 C 16,1 C 16,1 km/h (3 Bft)
17.06.2018 23:32 16,1 C 79 % 1017,9 hPa 0,0 l/m 11,0 km/h (2 Bft) NW 309 12,5 C 16,1 C 17,7 km/h (3 Bft)
17.06.2018 23:31 16,0 C 79 % 1017,9 hPa 0,0 l/m 12,0 km/h (2 Bft) NW 306 12,4 C 16,0 C 14,5 km/h (3 Bft)
17.06.2018 23:30 16,0 C 79 % 1017,9 hPa 0,0 l/m 13,1 km/h (3 Bft) NW 307 12,4 C 16,0 C 16,1 km/h (3 Bft)
17.06.2018 23:29 16,0 C 79 % 1018,0 hPa 0,0 l/m 11,6 km/h (2 Bft) NW 311 12,4 C 16,0 C 12,9 km/h (3 Bft)
17.06.2018 23:28 16,0 C 79 % 1017,9 hPa 0,0 l/m 11,3 km/h (2 Bft) NW 312 12,4 C 16,0 C 14,5 km/h (3 Bft)
17.06.2018 23:27 16,0 C 79 % 1017,9 hPa 0,0 l/m 12,1 km/h (2 Bft) NW 310 12,4 C 16,0 C 14,5 km/h (3 Bft)
17.06.2018 23:26 16,1 C 79 % 1017,9 hPa 0,0 l/m 9,5 km/h (2 Bft) W-NW 302 12,5 C 16,1 C 11,3 km/h (2 Bft)
17.06.2018 23:25 16,1 C 79 % 1017,8 hPa 0,0 l/m 8,0 km/h (2 Bft) W-NW 300 12,5 C 16,1 C 11,3 km/h (2 Bft)
17.06.2018 23:24 16,1 C 79 % 1017,9 hPa 0,0 l/m 7,6 km/h (2 Bft) W-NW 300 12,5 C 16,1 C 8,0 km/h (2 Bft)
17.06.2018 23:23 16,1 C 79 % 1017,8 hPa 0,0 l/m 7,6 km/h (2 Bft) NW 304 12,5 C 16,1 C 9,7 km/h (2 Bft)
17.06.2018 23:22 16,1 C 79 % 1017,8 hPa 0,0 l/m 7,6 km/h (2 Bft) NW 309 12,5 C 16,1 C 9,7 km/h (2 Bft)
17.06.2018 23:21 16,1 C 79 % 1017,8 hPa 0,0 l/m 7,9 km/h (2 Bft) NW 306 12,5 C 16,1 C 9,7 km/h (2 Bft)
17.06.2018 23:20 16,1 C 79 % 1017,8 hPa 0,0 l/m 7,6 km/h (2 Bft) NW 304 12,5 C 16,1 C 9,7 km/h (2 Bft)
17.06.2018 23:19 16,2 C 79 % 1017,8 hPa 0,0 l/m 7,8 km/h (2 Bft) NW 306 12,6 C 16,2 C 9,7 km/h (2 Bft)
17.06.2018 23:18 16,2 C 79 % 1017,8 hPa 0,0 l/m 7,6 km/h (2 Bft) W-NW 302 12,6 C 16,2 C 9,7 km/h (2 Bft)
17.06.2018 23:17 16,2 C 79 % 1017,8 hPa 0,0 l/m 8,0 km/h (2 Bft) W-NW 302 12,6 C 16,2 C 9,7 km/h (2 Bft)
17.06.2018 23:16 16,2 C 79 % 1017,8 hPa 0,0 l/m 9,5 km/h (2 Bft) NW 305 12,6 C 16,2 C 11,3 km/h (2 Bft)
17.06.2018 23:15 16,3 C 79 % 1017,8 hPa 0,0 l/m 9,4 km/h (2 Bft) W-NW 299 12,6 C 16,3 C 11,3 km/h (2 Bft)
17.06.2018 23:14 16,3 C 79 % 1017,8 hPa 0,0 l/m 8,0 km/h (2 Bft) W-NW 300 12,6 C 16,3 C 9,7 km/h (2 Bft)
17.06.2018 23:13 16,3 C 78 % 1017,8 hPa 0,0 l/m 8,6 km/h (2 Bft) W-NW 294 12,5 C 16,3 C 9,7 km/h (2 Bft)
17.06.2018 23:12 16,4 C 78 % 1017,7 hPa 0,0 l/m 8,8 km/h (2 Bft) W-NW 299 12,6 C 16,4 C 11,3 km/h (2 Bft)
17.06.2018 23:11 16,4 C 78 % 1017,7 hPa 0,0 l/m 8,1 km/h (2 Bft) W-NW 294 12,6 C 16,4 C 11,3 km/h (2 Bft)
17.06.2018 23:10 16,4 C 78 % 1017,7 hPa 0,0 l/m 9,4 km/h (2 Bft) NW 311 12,6 C 16,4 C 11,3 km/h (2 Bft)
17.06.2018 23:09 16,4 C 78 % 1017,7 hPa 0,0 l/m 8,6 km/h (2 Bft) NW 308 12,6 C 16,4 C 11,3 km/h (2 Bft)
17.06.2018 23:08 16,5 C 78 % 1017,7 hPa 0,0 l/m 9,0 km/h (2 Bft) W-NW 287 12,6 C 16,5 C 11,3 km/h (2 Bft)
17.06.2018 23:07 16,5 C 78 % 1017,7 hPa 0,0 l/m 10,0 km/h (2 Bft) W-NW 301 12,6 C 16,5 C 11,3 km/h (2 Bft)
17.06.2018 23:06 16,5 C 78 % 1017,7 hPa 0,0 l/m 9,3 km/h (2 Bft) W-NW 298 12,6 C 16,5 C 9,7 km/h (2 Bft)
17.06.2018 23:05 16,6 C 78 % 1017,7 hPa 0,0 l/m 9,9 km/h (2 Bft) W-NW 294 12,7 C 16,6 C 12,9 km/h (3 Bft)
17.06.2018 23:04 16,6 C 78 % 1017,7 hPa 0,0 l/m 9,6 km/h (2 Bft) W-NW 288 12,7 C 16,6 C 11,3 km/h (2 Bft)
17.06.2018 23:03 16,6 C 78 % 1017,7 hPa 0,0 l/m 10,4 km/h (2 Bft) NW 304 12,7 C 16,6 C 12,9 km/h (3 Bft)
17.06.2018 23:01 16,6 C 78 % 1017,7 hPa 0,0 l/m 11,9 km/h (2 Bft) NW 308 12,7 C 16,6 C 14,5 km/h (3 Bft)
17.06.2018 23:00 16,6 C 78 % 1017,6 hPa 0,0 l/m 10,8 km/h (2 Bft) NW 316 12,7 C 16,6 C 14,5 km/h (3 Bft)
17.06.2018 22:59 16,6 C 78 % 1017,6 hPa 0,0 l/m 12,3 km/h (2 Bft) W-NW 300 12,7 C 16,6 C 16,1 km/h (3 Bft)
17.06.2018 22:58 16,6 C 78 % 1017,6 hPa 0,0 l/m 11,9 km/h (2 Bft) W-NW 294 12,7 C 16,6 C 16,1 km/h (3 Bft)
17.06.2018 22:57 16,6 C 79 % 1017,6 hPa 0,0 l/m 8,0 km/h (2 Bft) NW 311 12,9 C 16,6 C 12,9 km/h (3 Bft)
17.06.2018 22:56 16,6 C 79 % 1017,6 hPa 0,0 l/m 10,8 km/h (2 Bft) W-NW 286 12,9 C 16,6 C 12,9 km/h (3 Bft)
17.06.2018 22:55 16,6 C 79 % 1017,6 hPa 0,0 l/m 8,6 km/h (2 Bft) W-NW 290 12,9 C 16,6 C 11,3 km/h (2 Bft)
17.06.2018 22:54 16,6 C 79 % 1017,6 hPa 0,0 l/m 10,4 km/h (2 Bft) W-NW 292 12,9 C 16,6 C 12,9 km/h (3 Bft)
17.06.2018 22:53 16,6 C 79 % 1017,6 hPa 0,0 l/m 9,2 km/h (2 Bft) W-NW 299 12,9 C 16,6 C 11,3 km/h (2 Bft)
17.06.2018 22:52 16,6 C 79 % 1017,6 hPa 0,0 l/m 11,0 km/h (2 Bft) W-NW 301 12,9 C 16,6 C 12,9 km/h (3 Bft)
17.06.2018 22:51 16,6 C 79 % 1017,6 hPa 0,0 l/m 9,7 km/h (2 Bft) W-NW 297 12,9 C 16,6 C 12,9 km/h (3 Bft)
17.06.2018 22:50 16,6 C 79 % 1017,5 hPa 0,0 l/m 11,3 km/h (2 Bft) NW 309 12,9 C 16,6 C 14,5 km/h (3 Bft)
17.06.2018 22:49 16,6 C 79 % 1017,5 hPa 0,0 l/m 8,8 km/h (2 Bft) W-NW 302 12,9 C 16,6 C 11,3 km/h (2 Bft)
17.06.2018 22:48 16,6 C 79 % 1017,5 hPa 0,0 l/m 10,1 km/h (2 Bft) W-NW 293 12,9 C 16,6 C 12,9 km/h (3 Bft)
17.06.2018 22:47 16,6 C 79 % 1017,5 hPa 0,0 l/m 11,5 km/h (2 Bft) NW 306 12,9 C 16,6 C 14,5 km/h (3 Bft)
17.06.2018 22:46 16,6 C 79 % 1017,4 hPa 0,0 l/m 12,8 km/h (3 Bft) NW 309 12,9 C 16,6 C 16,1 km/h (3 Bft)
17.06.2018 22:45 16,5 C 80 % 1017,5 hPa 0,0 l/m 14,3 km/h (3 Bft) NW 317 13,0 C 16,5 C 17,7 km/h (3 Bft)
17.06.2018 22:44 16,5 C 80 % 1017,4 hPa 0,0 l/m 13,1 km/h (3 Bft) W-NW 294 13,0 C 16,5 C 17,7 km/h (3 Bft)
17.06.2018 22:43 16,5 C 80 % 1017,4 hPa 0,0 l/m 12,3 km/h (2 Bft) W-NW 289 13,0 C 16,5 C 16,1 km/h (3 Bft)
17.06.2018 22:42 16,5 C 80 % 1017,4 hPa 0,0 l/m 13,5 km/h (3 Bft) W-NW 291 13,0 C 16,5 C 16,1 km/h (3 Bft)
17.06.2018 22:41 16,5 C 80 % 1017,4 hPa 0,0 l/m 13,0 km/h (3 Bft) W-NW 292 13,0 C 16,5 C 16,1 km/h (3 Bft)
17.06.2018 22:40 16,5 C 80 % 1017,4 hPa 0,0 l/m 11,6 km/h (2 Bft) NW 316 13,0 C 16,5 C 16,1 km/h (3 Bft)
17.06.2018 22:39 16,5 C 80 % 1017,4 hPa 0,0 l/m 11,6 km/h (2 Bft) NW 313 13,0 C 16,5 C 14,5 km/h (3 Bft)
17.06.2018 22:38 16,6 C 80 % 1017,4 hPa 0,0 l/m 9,5 km/h (2 Bft) W-NW 296 13,1 C 16,6 C 12,9 km/h (3 Bft)
17.06.2018 22:37 16,6 C 80 % 1017,4 hPa 0,0 l/m 11,3 km/h (2 Bft) W-NW 296 13,1 C 16,6 C 14,5 km/h (3 Bft)
17.06.2018 22:36 16,6 C 80 % 1017,4 hPa 0,0 l/m 10,9 km/h (2 Bft) W-NW 296 13,1 C 16,6 C 12,9 km/h (3 Bft)
17.06.2018 22:35 16,6 C 80 % 1017,3 hPa 0,0 l/m 9,7 km/h (2 Bft) NW 305 13,1 C 16,6 C 11,3 km/h (2 Bft)
17.06.2018 22:34 16,6 C 79 % 1017,3 hPa 0,0 l/m 10,7 km/h (2 Bft) NW 307 12,9 C 16,6 C 14,5 km/h (3 Bft)
17.06.2018 22:33 16,6 C 79 % 1017,3 hPa 0,0 l/m 12,8 km/h (3 Bft) W-NW 296 12,9 C 16,6 C 14,5 km/h (3 Bft)
17.06.2018 22:32 16,6 C 80 % 1017,3 hPa 0,0 l/m 9,9 km/h (2 Bft) W-NW 300 13,1 C 16,6 C 12,9 km/h (3 Bft)
17.06.2018 22:31 16,7 C 80 % 1017,3 hPa 0,0 l/m 10,7 km/h (2 Bft) W-NW 294 13,2 C 16,7 C 12,9 km/h (3 Bft)
17.06.2018 22:30 16,7 C 80 % 1017,3 hPa 0,0 l/m 9,4 km/h (2 Bft) NW 305 13,2 C 16,7 C 11,3 km/h (2 Bft)
17.06.2018 22:29 16,7 C 80 % 1017,3 hPa 0,0 l/m 10,7 km/h (2 Bft) W-NW 298 13,2 C 16,7 C 12,9 km/h (3 Bft)
17.06.2018 22:28 16,7 C 80 % 1017,3 hPa 0,0 l/m 9,7 km/h (2 Bft) W-NW 300 13,2 C 16,7 C 11,3 km/h (2 Bft)
17.06.2018 22:27 16,7 C 80 % 1017,3 hPa 0,0 l/m 7,6 km/h (2 Bft) W-NW 303 13,2 C 16,7 C 9,7 km/h (2 Bft)
17.06.2018 22:26 16,7 C 80 % 1017,3 hPa 0,0 l/m 10,8 km/h (2 Bft) W 279 13,2 C 16,7 C 14,5 km/h (3 Bft)
17.06.2018 22:25 16,7 C 80 % 1017,2 hPa 0,0 l/m 9,4 km/h (2 Bft) W-NW 298 13,2 C 16,7 C 14,5 km/h (3 Bft)
17.06.2018 22:24 16,7 C 80 % 1017,2 hPa 0,0 l/m 11,1 km/h (2 Bft) NW 310 13,2 C 16,7 C 14,5 km/h (3 Bft)
17.06.2018 22:23 16,7 C 80 % 1017,2 hPa 0,0 l/m 10,1 km/h (2 Bft) NW 307 13,2 C 16,7 C 12,9 km/h (3 Bft)
17.06.2018 22:22 16,7 C 80 % 1017,2 hPa 0,0 l/m 11,2 km/h (2 Bft) W-NW 300 13,2 C 16,7 C 12,9 km/h (3 Bft)
17.06.2018 22:21 16,8 C 80 % 1017,1 hPa 0,0 l/m 11,1 km/h (2 Bft) W-NW 284 13,3 C 16,8 C 14,5 km/h (3 Bft)
17.06.2018 22:20 16,8 C 80 % 1017,1 hPa 0,0 l/m 11,2 km/h (2 Bft) NW 310 13,3 C 16,8 C 12,9 km/h (3 Bft)
17.06.2018 22:19 16,7 C 80 % 1017,1 hPa 0,0 l/m 10,6 km/h (2 Bft) NW 304 13,2 C 16,7 C 12,9 km/h (3 Bft)
_ Min-Zeit 06:24 17:35 21:00 - 02:01 - - 12:20 06:24 02:01
Minimum _ 14,8 C 50 % 1016,4 hPa - 0,0 km/h (0 Bft) - - 10,6 C 14,8 C 0,0 km/h (0 Bft)
_ Max-Zeit 16:43 21:43 12:07 21:00 12:03 - - 20:26 16:38 13:03
Maximum _ 23,2 C 82 % 1021,0 hPa 0,0 l/m 17,1 km/h
W-NW (3 Bft)
- - 15,3 C 23,1 C 25,7 km/h
W-SW (4 Bft)
Durchschnitt _ 18,3 C 69 % 1019,2 hPa #0,0 l/m 6,4 km/h (2 Bft) NW - 12,4 C 18,3 C 9,3 km/h (2 Bft)
Wetterstation Eggerszell